sensor_id;sensor_type;location;lat;lon;timestamp;P1;durP1;ratioP1;P2;durP2;ratioP2
39518;SDS011;25200;53.394;10.414;2023-03-01T00:01:22;15.45;;;5.90;;
39518;SDS011;25200;53.394;10.414;2023-03-01T00:03:50;14.77;;;6.35;;
39518;SDS011;25200;53.394;10.414;2023-03-01T00:06:17;13.98;;;6.07;;
39518;SDS011;25200;53.394;10.414;2023-03-01T00:08:43;17.60;;;7.07;;
39518;SDS011;25200;53.394;10.414;2023-03-01T00:11:12;16.75;;;6.35;;
39518;SDS011;25200;53.394;10.414;2023-03-01T00:13:43;11.85;;;4.93;;
39518;SDS011;25200;53.394;10.414;2023-03-01T00:16:11;11.35;;;4.88;;
39518;SDS011;25200;53.394;10.414;2023-03-01T00:18:42;11.85;;;5.10;;
39518;SDS011;25200;53.394;10.414;2023-03-01T00:21:07;11.88;;;5.13;;
39518;SDS011;25200;53.394;10.414;2023-03-01T00:23:34;13.13;;;4.35;;
39518;SDS011;25200;53.394;10.414;2023-03-01T00:26:00;12.05;;;4.78;;
39518;SDS011;25200;53.394;10.414;2023-03-01T00:28:26;10.20;;;4.70;;
39518;SDS011;25200;53.394;10.414;2023-03-01T00:30:51;9.93;;;4.65;;
39518;SDS011;25200;53.394;10.414;2023-03-01T00:33:17;9.75;;;4.32;;
39518;SDS011;25200;53.394;10.414;2023-03-01T00:35:43;9.93;;;4.50;;
39518;SDS011;25200;53.394;10.414;2023-03-01T00:38:09;9.27;;;4.15;;
39518;SDS011;25200;53.394;10.414;2023-03-01T00:40:35;11.48;;;4.75;;
39518;SDS011;25200;53.394;10.414;2023-03-01T00:43:02;9.80;;;4.57;;
39518;SDS011;25200;53.394;10.414;2023-03-01T00:45:28;9.90;;;4.70;;
39518;SDS011;25200;53.394;10.414;2023-03-01T00:47:56;8.82;;;4.32;;
39518;SDS011;25200;53.394;10.414;2023-03-01T00:50:21;9.20;;;4.35;;
39518;SDS011;25200;53.394;10.414;2023-03-01T00:52:51;10.95;;;4.50;;
39518;SDS011;25200;53.394;10.414;2023-03-01T00:55:18;9.40;;;4.32;;
39518;SDS011;25200;53.394;10.414;2023-03-01T00:57:44;10.65;;;4.47;;
39518;SDS011;25200;53.394;10.414;2023-03-01T01:00:10;12.02;;;4.47;;
39518;SDS011;25200;53.394;10.414;2023-03-01T01:02:36;10.10;;;4.30;;
39518;SDS011;25200;53.394;10.414;2023-03-01T01:05:02;9.57;;;4.40;;
39518;SDS011;25200;53.394;10.414;2023-03-01T01:07:28;10.77;;;4.32;;
39518;SDS011;25200;53.394;10.414;2023-03-01T01:09:54;12.13;;;4.95;;
39518;SDS011;25200;53.394;10.414;2023-03-01T01:12:19;10.77;;;4.78;;
39518;SDS011;25200;53.394;10.414;2023-03-01T01:14:45;10.85;;;4.57;;
39518;SDS011;25200;53.394;10.414;2023-03-01T01:17:11;9.93;;;4.50;;
39518;SDS011;25200;53.394;10.414;2023-03-01T01:19:36;13.10;;;4.95;;
39518;SDS011;25200;53.394;10.414;2023-03-01T01:22:02;12.68;;;5.30;;
39518;SDS011;25200;53.394;10.414;2023-03-01T01:24:28;21.67;;;7.95;;
39518;SDS011;25200;53.394;10.414;2023-03-01T01:26:54;17.10;;;7.32;;
39518;SDS011;25200;53.394;10.414;2023-03-01T01:29:20;19.85;;;7.22;;
39518;SDS011;25200;53.394;10.414;2023-03-01T01:31:45;21.88;;;8.20;;
39518;SDS011;25200;53.394;10.414;2023-03-01T01:34:15;27.88;;;8.80;;
39518;SDS011;25200;53.394;10.414;2023-03-01T01:36:42;23.90;;;9.00;;
39518;SDS011;25200;53.394;10.414;2023-03-01T01:39:08;25.67;;;9.50;;
39518;SDS011;25200;53.394;10.414;2023-03-01T01:41:38;23.80;;;8.90;;
39518;SDS011;25200;53.394;10.414;2023-03-01T01:46:37;21.42;;;8.88;;
39518;SDS011;25200;53.394;10.414;2023-03-01T01:49:06;28.45;;;9.80;;
39518;SDS011;25200;53.394;10.414;2023-03-01T01:51:42;24.70;;;8.52;;
39518;SDS011;25200;53.394;10.414;2023-03-01T01:54:30;28.08;;;9.20;;
39518;SDS011;25200;53.394;10.414;2023-03-01T01:57:03;23.83;;;9.20;;
39518;SDS011;25200;53.394;10.414;2023-03-01T01:59:33;22.83;;;7.85;;
39518;SDS011;25200;53.394;10.414;2023-03-01T02:02:00;24.85;;;8.88;;
39518;SDS011;25200;53.394;10.414;2023-03-01T02:04:28;22.13;;;8.23;;
39518;SDS011;25200;53.394;10.414;2023-03-01T02:07:00;22.63;;;8.88;;
39518;SDS011;25200;53.394;10.414;2023-03-01T02:09:30;22.38;;;8.18;;
39518;SDS011;25200;53.394;10.414;2023-03-01T02:11:57;18.63;;;7.28;;
39518;SDS011;25200;53.394;10.414;2023-03-01T02:14:23;18.23;;;6.97;;
39518;SDS011;25200;53.394;10.414;2023-03-01T02:16:49;18.88;;;6.95;;
39518;SDS011;25200;53.394;10.414;2023-03-01T02:19:58;17.25;;;7.40;;
39518;SDS011;25200;53.394;10.414;2023-03-01T02:22:18;22.20;;;7.15;;
39518;SDS011;25200;53.394;10.414;2023-03-01T02:24:57;19.20;;;7.70;;
39518;SDS011;25200;53.394;10.414;2023-03-01T02:27:33;16.80;;;6.35;;
39518;SDS011;25200;53.394;10.414;2023-03-01T02:30:05;14.63;;;6.00;;
39518;SDS011;25200;53.394;10.414;2023-03-01T02:32:32;15.90;;;6.57;;
39518;SDS011;25200;53.394;10.414;2023-03-01T02:34:59;14.93;;;6.22;;
39518;SDS011;25200;53.394;10.414;2023-03-01T02:37:25;13.55;;;5.70;;
39518;SDS011;25200;53.394;10.414;2023-03-01T02:39:56;15.68;;;6.30;;
39518;SDS011;25200;53.394;10.414;2023-03-01T02:42:30;14.27;;;5.78;;
39518;SDS011;25200;53.394;10.414;2023-03-01T02:45:02;15.13;;;5.78;;
39518;SDS011;25200;53.394;10.414;2023-03-01T02:47:28;14.43;;;6.20;;
39518;SDS011;25200;53.394;10.414;2023-03-01T02:49:54;13.27;;;5.28;;
39518;SDS011;25200;53.394;10.414;2023-03-01T02:55:16;10.80;;;4.63;;
39518;SDS011;25200;53.394;10.414;2023-03-01T02:57:43;13.23;;;4.65;;
39518;SDS011;25200;53.394;10.414;2023-03-01T03:00:15;9.48;;;4.57;;
39518;SDS011;25200;53.394;10.414;2023-03-01T03:07:40;11.85;;;3.95;;
39518;SDS011;25200;53.394;10.414;2023-03-01T03:10:09;9.38;;;4.32;;
39518;SDS011;25200;53.394;10.414;2023-03-01T03:12:39;8.85;;;4.32;;
39518;SDS011;25200;53.394;10.414;2023-03-01T03:15:06;9.50;;;3.92;;
39518;SDS011;25200;53.394;10.414;2023-03-01T03:17:37;10.77;;;3.88;;
39518;SDS011;25200;53.394;10.414;2023-03-01T03:20:06;9.80;;;4.00;;
39518;SDS011;25200;53.394;10.414;2023-03-01T03:22:36;8.38;;;4.20;;
39518;SDS011;25200;53.394;10.414;2023-03-01T03:25:07;9.65;;;3.95;;
39518;SDS011;25200;53.394;10.414;2023-03-01T03:27:37;8.93;;;3.63;;
39518;SDS011;25200;53.394;10.414;2023-03-01T03:30:04;10.27;;;4.05;;
39518;SDS011;25200;53.394;10.414;2023-03-01T03:32:37;10.45;;;3.40;;
39518;SDS011;25200;53.394;10.414;2023-03-01T03:35:04;7.93;;;3.60;;
39518;SDS011;25200;53.394;10.414;2023-03-01T03:37:37;7.40;;;3.45;;
39518;SDS011;25200;53.394;10.414;2023-03-01T03:40:22;8.25;;;3.70;;
39518;SDS011;25200;53.394;10.414;2023-03-01T03:42:48;5.45;;;2.90;;
39518;SDS011;25200;53.394;10.414;2023-03-01T03:45:15;6.30;;;2.97;;
39518;SDS011;25200;53.394;10.414;2023-03-01T03:47:41;8.23;;;3.25;;
39518;SDS011;25200;53.394;10.414;2023-03-01T03:50:08;8.20;;;3.50;;
39518;SDS011;25200;53.394;10.414;2023-03-01T03:52:38;9.52;;;3.25;;
39518;SDS011;25200;53.394;10.414;2023-03-01T03:55:05;9.70;;;3.03;;
39518;SDS011;25200;53.394;10.414;2023-03-01T03:57:38;8.75;;;3.40;;
39518;SDS011;25200;53.394;10.414;2023-03-01T04:00:05;5.82;;;2.60;;
39518;SDS011;25200;53.394;10.414;2023-03-01T04:02:40;7.93;;;3.42;;
39518;SDS011;25200;53.394;10.414;2023-03-01T04:05:07;8.25;;;3.20;;
39518;SDS011;25200;53.394;10.414;2023-03-01T04:07:34;8.20;;;3.03;;
39518;SDS011;25200;53.394;10.414;2023-03-01T04:10:05;9.73;;;3.83;;
39518;SDS011;25200;53.394;10.414;2023-03-01T04:12:33;7.28;;;3.10;;
39518;SDS011;25200;53.394;10.414;2023-03-01T04:15:03;7.00;;;2.80;;
39518;SDS011;25200;53.394;10.414;2023-03-01T04:17:49;10.30;;;3.03;;
39518;SDS011;25200;53.394;10.414;2023-03-01T04:20:17;8.10;;;3.00;;
39518;SDS011;25200;53.394;10.414;2023-03-01T04:22:51;7.43;;;2.85;;
39518;SDS011;25200;53.394;10.414;2023-03-01T04:25:22;6.00;;;3.10;;
39518;SDS011;25200;53.394;10.414;2023-03-01T04:27:48;9.15;;;3.17;;
39518;SDS011;25200;53.394;10.414;2023-03-01T04:30:15;5.15;;;2.50;;
39518;SDS011;25200;53.394;10.414;2023-03-01T04:32:40;6.18;;;2.63;;
39518;SDS011;25200;53.394;10.414;2023-03-01T04:35:06;6.63;;;2.70;;
39518;SDS011;25200;53.394;10.414;2023-03-01T04:37:33;6.72;;;2.70;;
39518;SDS011;25200;53.394;10.414;2023-03-01T04:40:00;7.70;;;2.97;;
39518;SDS011;25200;53.394;10.414;2023-03-01T04:42:40;8.82;;;2.63;;
39518;SDS011;25200;53.394;10.414;2023-03-01T04:45:07;8.38;;;2.80;;
39518;SDS011;25200;53.394;10.414;2023-03-01T04:47:38;9.07;;;3.55;;
39518;SDS011;25200;53.394;10.414;2023-03-01T04:50:05;6.95;;;3.33;;
39518;SDS011;25200;53.394;10.414;2023-03-01T04:52:31;7.50;;;3.05;;
39518;SDS011;25200;53.394;10.414;2023-03-01T04:54:56;10.25;;;3.58;;
39518;SDS011;25200;53.394;10.414;2023-03-01T04:57:22;8.07;;;3.15;;
39518;SDS011;25200;53.394;10.414;2023-03-01T04:59:48;9.20;;;3.17;;
39518;SDS011;25200;53.394;10.414;2023-03-01T05:02:13;6.40;;;2.88;;
39518;SDS011;25200;53.394;10.414;2023-03-01T05:04:39;8.25;;;2.85;;
39518;SDS011;25200;53.394;10.414;2023-03-01T05:07:05;5.75;;;2.63;;
39518;SDS011;25200;53.394;10.414;2023-03-01T05:09:30;6.93;;;2.65;;
39518;SDS011;25200;53.394;10.414;2023-03-01T05:11:56;7.85;;;3.10;;
39518;SDS011;25200;53.394;10.414;2023-03-01T05:14:22;5.78;;;2.75;;
39518;SDS011;25200;53.394;10.414;2023-03-01T05:16:47;8.55;;;3.20;;
39518;SDS011;25200;53.394;10.414;2023-03-01T05:19:13;6.65;;;2.95;;
39518;SDS011;25200;53.394;10.414;2023-03-01T05:21:47;8.73;;;3.13;;
39518;SDS011;25200;53.394;10.414;2023-03-01T05:24:29;6.88;;;2.92;;
39518;SDS011;25200;53.394;10.414;2023-03-01T05:26:56;5.90;;;2.97;;
39518;SDS011;25200;53.394;10.414;2023-03-01T05:29:23;7.38;;;2.88;;
39518;SDS011;25200;53.394;10.414;2023-03-01T05:31:53;7.00;;;2.75;;
39518;SDS011;25200;53.394;10.414;2023-03-01T05:34:24;8.10;;;3.22;;
39518;SDS011;25200;53.394;10.414;2023-03-01T05:36:51;7.82;;;3.55;;
39518;SDS011;25200;53.394;10.414;2023-03-01T05:39:19;6.15;;;3.05;;
39518;SDS011;25200;53.394;10.414;2023-03-01T05:41:46;5.70;;;2.72;;
39518;SDS011;25200;53.394;10.414;2023-03-01T05:44:12;6.53;;;3.03;;
39518;SDS011;25200;53.394;10.414;2023-03-01T05:46:38;8.48;;;3.90;;
39518;SDS011;25200;53.394;10.414;2023-03-01T05:49:04;7.72;;;3.17;;
39518;SDS011;25200;53.394;10.414;2023-03-01T05:51:30;6.65;;;3.30;;
39518;SDS011;25200;53.394;10.414;2023-03-01T05:53:55;6.75;;;3.17;;
39518;SDS011;25200;53.394;10.414;2023-03-01T05:56:21;10.00;;;3.42;;
39518;SDS011;25200;53.394;10.414;2023-03-01T05:58:48;7.90;;;3.25;;
39518;SDS011;25200;53.394;10.414;2023-03-01T06:01:14;6.22;;;3.08;;
39518;SDS011;25200;53.394;10.414;2023-03-01T06:03:40;7.78;;;3.10;;
39518;SDS011;25200;53.394;10.414;2023-03-01T06:06:06;7.57;;;3.28;;
39518;SDS011;25200;53.394;10.414;2023-03-01T06:08:31;7.20;;;3.30;;
39518;SDS011;25200;53.394;10.414;2023-03-01T06:10:57;8.43;;;3.60;;
39518;SDS011;25200;53.394;10.414;2023-03-01T06:13:23;6.35;;;2.85;;
39518;SDS011;25200;53.394;10.414;2023-03-01T06:15:49;7.55;;;3.50;;
39518;SDS011;25200;53.394;10.414;2023-03-01T06:18:15;7.15;;;3.28;;
39518;SDS011;25200;53.394;10.414;2023-03-01T06:20:41;6.15;;;3.30;;
39518;SDS011;25200;53.394;10.414;2023-03-01T06:23:07;9.02;;;3.38;;
39518;SDS011;25200;53.394;10.414;2023-03-01T06:25:33;6.57;;;3.25;;
39518;SDS011;25200;53.394;10.414;2023-03-01T06:27:58;6.35;;;3.08;;
39518;SDS011;25200;53.394;10.414;2023-03-01T06:30:24;6.75;;;3.30;;
39518;SDS011;25200;53.394;10.414;2023-03-01T06:32:51;9.05;;;4.00;;
39518;SDS011;25200;53.394;10.414;2023-03-01T06:35:18;8.18;;;3.90;;
39518;SDS011;25200;53.394;10.414;2023-03-01T06:37:45;8.52;;;4.15;;
39518;SDS011;25200;53.394;10.414;2023-03-01T06:40:11;8.40;;;3.60;;
39518;SDS011;25200;53.394;10.414;2023-03-01T06:42:39;8.90;;;3.72;;
39518;SDS011;25200;53.394;10.414;2023-03-01T06:45:07;8.13;;;3.65;;
39518;SDS011;25200;53.394;10.414;2023-03-01T06:47:33;10.13;;;4.10;;
39518;SDS011;25200;53.394;10.414;2023-03-01T06:50:00;8.00;;;3.35;;
39518;SDS011;25200;53.394;10.414;2023-03-01T06:52:26;7.50;;;3.88;;
39518;SDS011;25200;53.394;10.414;2023-03-01T06:54:52;8.50;;;4.05;;
39518;SDS011;25200;53.394;10.414;2023-03-01T06:57:18;6.57;;;3.63;;
39518;SDS011;25200;53.394;10.414;2023-03-01T06:59:44;7.53;;;3.03;;
39518;SDS011;25200;53.394;10.414;2023-03-01T07:02:11;7.70;;;3.10;;
39518;SDS011;25200;53.394;10.414;2023-03-01T07:04:37;9.40;;;3.55;;
39518;SDS011;25200;53.394;10.414;2023-03-01T07:07:03;9.10;;;3.33;;
39518;SDS011;25200;53.394;10.414;2023-03-01T07:09:29;6.55;;;2.80;;
39518;SDS011;25200;53.394;10.414;2023-03-01T07:11:55;7.80;;;3.00;;
39518;SDS011;25200;53.394;10.414;2023-03-01T07:14:21;8.48;;;3.15;;
39518;SDS011;25200;53.394;10.414;2023-03-01T07:16:49;7.70;;;3.30;;
39518;SDS011;25200;53.394;10.414;2023-03-01T07:19:15;7.53;;;2.90;;
39518;SDS011;25200;53.394;10.414;2023-03-01T07:21:40;9.30;;;3.10;;
39518;SDS011;25200;53.394;10.414;2023-03-01T07:24:07;7.18;;;3.00;;
39518;SDS011;25200;53.394;10.414;2023-03-01T07:26:34;5.93;;;2.65;;
39518;SDS011;25200;53.394;10.414;2023-03-01T07:29:00;6.43;;;2.55;;
39518;SDS011;25200;53.394;10.414;2023-03-01T07:31:27;7.65;;;2.80;;
39518;SDS011;25200;53.394;10.414;2023-03-01T07:33:54;5.18;;;2.60;;
39518;SDS011;25200;53.394;10.414;2023-03-01T07:36:19;8.80;;;2.80;;
39518;SDS011;25200;53.394;10.414;2023-03-01T07:38:45;6.22;;;2.85;;
39518;SDS011;25200;53.394;10.414;2023-03-01T07:41:11;5.97;;;2.90;;
39518;SDS011;25200;53.394;10.414;2023-03-01T07:43:37;7.60;;;2.78;;
39518;SDS011;25200;53.394;10.414;2023-03-01T07:46:03;9.40;;;2.63;;
39518;SDS011;25200;53.394;10.414;2023-03-01T07:48:30;6.20;;;2.60;;
39518;SDS011;25200;53.394;10.414;2023-03-01T07:51:02;6.30;;;2.90;;
39518;SDS011;25200;53.394;10.414;2023-03-01T07:53:29;7.43;;;2.80;;
39518;SDS011;25200;53.394;10.414;2023-03-01T07:56:11;9.20;;;2.65;;
39518;SDS011;25200;53.394;10.414;2023-03-01T07:58:39;7.35;;;3.10;;
39518;SDS011;25200;53.394;10.414;2023-03-01T08:01:07;11.10;;;4.28;;
39518;SDS011;25200;53.394;10.414;2023-03-01T08:03:35;7.90;;;3.70;;
39518;SDS011;25200;53.394;10.414;2023-03-01T08:06:02;10.73;;;4.45;;
39518;SDS011;25200;53.394;10.414;2023-03-01T08:08:29;9.65;;;3.75;;
39518;SDS011;25200;53.394;10.414;2023-03-01T08:11:01;12.82;;;3.58;;
39518;SDS011;25200;53.394;10.414;2023-03-01T08:13:29;9.98;;;3.53;;
39518;SDS011;25200;53.394;10.414;2023-03-01T08:16:00;10.50;;;3.55;;
39518;SDS011;25200;53.394;10.414;2023-03-01T08:18:27;8.88;;;3.70;;
39518;SDS011;25200;53.394;10.414;2023-03-01T08:20:52;7.18;;;3.22;;
39518;SDS011;25200;53.394;10.414;2023-03-01T08:23:18;8.40;;;3.22;;
39518;SDS011;25200;53.394;10.414;2023-03-01T08:25:44;6.45;;;2.33;;
39518;SDS011;25200;53.394;10.414;2023-03-01T08:28:09;9.43;;;2.80;;
39518;SDS011;25200;53.394;10.414;2023-03-01T08:30:35;6.00;;;2.40;;
39518;SDS011;25200;53.394;10.414;2023-03-01T08:33:01;5.70;;;2.38;;
39518;SDS011;25200;53.394;10.414;2023-03-01T08:35:26;6.43;;;3.05;;
39518;SDS011;25200;53.394;10.414;2023-03-01T08:37:52;5.28;;;2.20;;
39518;SDS011;25200;53.394;10.414;2023-03-01T08:40:18;5.78;;;2.47;;
39518;SDS011;25200;53.394;10.414;2023-03-01T08:42:43;6.15;;;2.65;;
39518;SDS011;25200;53.394;10.414;2023-03-01T08:45:09;5.25;;;2.47;;
39518;SDS011;25200;53.394;10.414;2023-03-01T08:47:36;6.32;;;2.30;;
39518;SDS011;25200;53.394;10.414;2023-03-01T08:50:02;5.97;;;2.55;;
39518;SDS011;25200;53.394;10.414;2023-03-01T08:52:29;5.38;;;2.33;;
39518;SDS011;25200;53.394;10.414;2023-03-01T08:54:56;5.65;;;2.47;;
39518;SDS011;25200;53.394;10.414;2023-03-01T08:57:22;8.18;;;2.60;;
39518;SDS011;25200;53.394;10.414;2023-03-01T08:59:48;6.30;;;2.70;;
39518;SDS011;25200;53.394;10.414;2023-03-01T09:02:14;6.55;;;2.60;;
39518;SDS011;25200;53.394;10.414;2023-03-01T09:04:41;5.88;;;2.83;;
39518;SDS011;25200;53.394;10.414;2023-03-01T09:07:07;6.32;;;2.63;;
39518;SDS011;25200;53.394;10.414;2023-03-01T09:09:34;6.07;;;2.65;;
39518;SDS011;25200;53.394;10.414;2023-03-01T09:12:00;7.28;;;3.08;;
39518;SDS011;25200;53.394;10.414;2023-03-01T09:14:26;8.13;;;3.78;;
39518;SDS011;25200;53.394;10.414;2023-03-01T09:16:51;10.27;;;4.43;;
39518;SDS011;25200;53.394;10.414;2023-03-01T09:19:17;9.52;;;4.13;;
39518;SDS011;25200;53.394;10.414;2023-03-01T09:21:43;11.32;;;3.47;;
39518;SDS011;25200;53.394;10.414;2023-03-01T09:24:17;9.90;;;3.22;;
39518;SDS011;25200;53.394;10.414;2023-03-01T09:26:44;7.68;;;3.60;;
39518;SDS011;25200;53.394;10.414;2023-03-01T09:29:13;10.18;;;4.00;;
39518;SDS011;25200;53.394;10.414;2023-03-01T09:31:39;10.10;;;3.90;;
39518;SDS011;25200;53.394;10.414;2023-03-01T09:34:06;8.27;;;4.00;;
39518;SDS011;25200;53.394;10.414;2023-03-01T09:36:33;11.52;;;4.28;;
39518;SDS011;25200;53.394;10.414;2023-03-01T09:38:59;11.18;;;4.22;;
39518;SDS011;25200;53.394;10.414;2023-03-01T09:47:17;9.15;;;3.88;;
39518;SDS011;25200;53.394;10.414;2023-03-01T09:49:51;7.68;;;3.75;;
39518;SDS011;25200;53.394;10.414;2023-03-01T09:52:37;8.40;;;3.93;;
39518;SDS011;25200;53.394;10.414;2023-03-01T09:55:15;9.93;;;4.18;;
39518;SDS011;25200;53.394;10.414;2023-03-01T09:57:55;11.73;;;4.18;;
39518;SDS011;25200;53.394;10.414;2023-03-01T10:00:44;10.82;;;3.65;;
39518;SDS011;25200;53.394;10.414;2023-03-01T10:05:48;9.82;;;4.20;;
39518;SDS011;25200;53.394;10.414;2023-03-01T10:10:56;10.38;;;4.40;;
39518;SDS011;25200;53.394;10.414;2023-03-01T10:16:06;11.02;;;4.57;;
39518;SDS011;25200;53.394;10.414;2023-03-01T10:18:35;8.20;;;4.22;;
39518;SDS011;25200;53.394;10.414;2023-03-01T10:21:07;9.13;;;4.82;;
39518;SDS011;25200;53.394;10.414;2023-03-01T10:23:41;10.77;;;4.60;;
39518;SDS011;25200;53.394;10.414;2023-03-01T10:29:06;10.70;;;4.55;;
39518;SDS011;25200;53.394;10.414;2023-03-01T10:36:48;10.45;;;4.55;;
39518;SDS011;25200;53.394;10.414;2023-03-01T10:39:21;9.70;;;4.50;;
39518;SDS011;25200;53.394;10.414;2023-03-01T10:41:53;9.65;;;5.13;;
39518;SDS011;25200;53.394;10.414;2023-03-01T10:47:02;11.35;;;5.05;;
39518;SDS011;25200;53.394;10.414;2023-03-01T10:49:29;10.52;;;4.32;;
39518;SDS011;25200;53.394;10.414;2023-03-01T10:51:55;13.60;;;5.20;;
39518;SDS011;25200;53.394;10.414;2023-03-01T10:56:55;10.13;;;5.25;;
39518;SDS011;25200;53.394;10.414;2023-03-01T11:07:24;9.85;;;5.47;;
39518;SDS011;25200;53.394;10.414;2023-03-01T11:09:49;10.05;;;5.15;;
39518;SDS011;25200;53.394;10.414;2023-03-01T11:12:15;11.02;;;5.40;;
39518;SDS011;25200;53.394;10.414;2023-03-01T11:14:47;11.68;;;5.68;;
39518;SDS011;25200;53.394;10.414;2023-03-01T11:17:27;9.57;;;5.38;;
39518;SDS011;25200;53.394;10.414;2023-03-01T11:20:05;10.32;;;5.25;;
39518;SDS011;25200;53.394;10.414;2023-03-01T11:22:37;9.90;;;5.47;;
39518;SDS011;25200;53.394;10.414;2023-03-01T11:25:12;11.40;;;6.00;;
39518;SDS011;25200;53.394;10.414;2023-03-01T11:27:40;13.45;;;6.00;;
39518;SDS011;25200;53.394;10.414;2023-03-01T11:30:26;11.45;;;6.18;;
39518;SDS011;25200;53.394;10.414;2023-03-01T11:35:41;12.30;;;6.20;;
39518;SDS011;25200;53.394;10.414;2023-03-01T11:41:01;9.32;;;5.28;;
39518;SDS011;25200;53.394;10.414;2023-03-01T11:54:17;11.73;;;6.03;;
39518;SDS011;25200;53.394;10.414;2023-03-01T11:56:59;9.93;;;5.32;;
39518;SDS011;25200;53.394;10.414;2023-03-01T12:02:12;12.35;;;6.05;;
39518;SDS011;25200;53.394;10.414;2023-03-01T12:08:04;13.95;;;5.68;;
39518;SDS011;25200;53.394;10.414;2023-03-01T12:11:16;9.32;;;5.22;;
39518;SDS011;25200;53.394;10.414;2023-03-01T12:27:15;11.60;;;6.00;;
39518;SDS011;25200;53.394;10.414;2023-03-01T12:38:33;11.35;;;6.50;;
39518;SDS011;25200;53.394;10.414;2023-03-01T12:41:27;10.88;;;6.10;;
39518;SDS011;25200;53.394;10.414;2023-03-01T12:49:33;10.10;;;5.60;;
39518;SDS011;25200;53.394;10.414;2023-03-01T12:52:10;9.13;;;5.05;;
39518;SDS011;25200;53.394;10.414;2023-03-01T12:54:39;9.32;;;5.38;;
39518;SDS011;25200;53.394;10.414;2023-03-01T12:57:10;9.77;;;5.35;;
39518;SDS011;25200;53.394;10.414;2023-03-01T13:02:45;10.13;;;5.45;;
39518;SDS011;25200;53.394;10.414;2023-03-01T13:10:56;9.00;;;5.70;;
39518;SDS011;25200;53.394;10.414;2023-03-01T13:13:21;9.55;;;4.68;;
39518;SDS011;25200;53.394;10.414;2023-03-01T13:15:48;9.85;;;4.93;;
39518;SDS011;25200;53.394;10.414;2023-03-01T13:33:41;9.18;;;5.13;;
39518;SDS011;25200;53.394;10.414;2023-03-01T13:46:47;9.07;;;5.00;;
39518;SDS011;25200;53.394;10.414;2023-03-01T13:49:16;11.88;;;5.25;;
39518;SDS011;25200;53.394;10.414;2023-03-01T13:51:47;8.32;;;4.60;;
39518;SDS011;25200;53.394;10.414;2023-03-01T13:54:15;9.05;;;4.50;;
39518;SDS011;25200;53.394;10.414;2023-03-01T13:56:43;9.48;;;4.70;;
39518;SDS011;25200;53.394;10.414;2023-03-01T13:59:13;10.15;;;4.70;;
39518;SDS011;25200;53.394;10.414;2023-03-01T14:01:43;9.30;;;4.90;;
39518;SDS011;25200;53.394;10.414;2023-03-01T14:09:43;9.00;;;4.35;;
39518;SDS011;25200;53.394;10.414;2023-03-01T14:15:08;8.55;;;4.30;;
39518;SDS011;25200;53.394;10.414;2023-03-01T14:17:55;8.43;;;4.97;;
39518;SDS011;25200;53.394;10.414;2023-03-01T14:20:28;9.93;;;4.85;;
39518;SDS011;25200;53.394;10.414;2023-03-01T14:22:58;8.77;;;4.47;;
39518;SDS011;25200;53.394;10.414;2023-03-01T14:30:25;8.50;;;4.18;;
39518;SDS011;25200;53.394;10.414;2023-03-01T14:33:00;10.00;;;4.53;;
39518;SDS011;25200;53.394;10.414;2023-03-01T14:35:32;9.70;;;4.85;;
39518;SDS011;25200;53.394;10.414;2023-03-01T14:38:00;8.20;;;4.30;;
39518;SDS011;25200;53.394;10.414;2023-03-01T14:40:28;10.73;;;4.70;;
39518;SDS011;25200;53.394;10.414;2023-03-01T14:43:00;9.80;;;4.60;;
39518;SDS011;25200;53.394;10.414;2023-03-01T14:45:33;10.53;;;4.70;;
39518;SDS011;25200;53.394;10.414;2023-03-01T14:47:59;8.05;;;4.25;;
39518;SDS011;25200;53.394;10.414;2023-03-01T14:50:28;11.07;;;4.88;;
39518;SDS011;25200;53.394;10.414;2023-03-01T14:52:59;9.45;;;4.57;;
39518;SDS011;25200;53.394;10.414;2023-03-01T14:55:31;8.70;;;4.65;;
39518;SDS011;25200;53.394;10.414;2023-03-01T14:57:57;9.55;;;4.47;;
39518;SDS011;25200;53.394;10.414;2023-03-01T15:00:33;11.18;;;4.05;;
39518;SDS011;25200;53.394;10.414;2023-03-01T15:03:06;8.18;;;4.25;;
39518;SDS011;25200;53.394;10.414;2023-03-01T15:05:38;9.02;;;4.55;;
39518;SDS011;25200;53.394;10.414;2023-03-01T15:08:06;8.88;;;4.40;;
39518;SDS011;25200;53.394;10.414;2023-03-01T15:10:38;10.40;;;4.30;;
39518;SDS011;25200;53.394;10.414;2023-03-01T15:13:11;8.38;;;3.78;;
39518;SDS011;25200;53.394;10.414;2023-03-01T15:15:45;8.48;;;3.70;;
39518;SDS011;25200;53.394;10.414;2023-03-01T15:18:13;9.25;;;3.78;;
39518;SDS011;25200;53.394;10.414;2023-03-01T15:20:42;7.05;;;3.47;;
39518;SDS011;25200;53.394;10.414;2023-03-01T15:23:22;7.03;;;3.25;;
39518;SDS011;25200;53.394;10.414;2023-03-01T15:25:52;7.88;;;3.78;;
39518;SDS011;25200;53.394;10.414;2023-03-01T15:28:26;6.55;;;3.13;;
39518;SDS011;25200;53.394;10.414;2023-03-01T15:30:58;6.55;;;3.25;;
39518;SDS011;25200;53.394;10.414;2023-03-01T15:33:32;6.60;;;3.10;;
39518;SDS011;25200;53.394;10.414;2023-03-01T15:36:01;6.97;;;3.53;;
39518;SDS011;25200;53.394;10.414;2023-03-01T15:38:30;6.85;;;3.33;;
39518;SDS011;25200;53.394;10.414;2023-03-01T15:44:15;7.95;;;3.72;;
39518;SDS011;25200;53.394;10.414;2023-03-01T15:46:44;8.52;;;3.10;;
39518;SDS011;25200;53.394;10.414;2023-03-01T15:52:20;5.18;;;2.80;;
39518;SDS011;25200;53.394;10.414;2023-03-01T15:54:57;7.00;;;3.15;;
39518;SDS011;25200;53.394;10.414;2023-03-01T15:57:30;6.57;;;3.40;;
39518;SDS011;25200;53.394;10.414;2023-03-01T15:59:56;9.02;;;3.50;;
39518;SDS011;25200;53.394;10.414;2023-03-01T16:02:22;6.50;;;3.22;;
39518;SDS011;25200;53.394;10.414;2023-03-01T16:04:49;7.38;;;3.58;;
39518;SDS011;25200;53.394;10.414;2023-03-01T16:07:15;6.78;;;3.33;;
39518;SDS011;25200;53.394;10.414;2023-03-01T16:09:41;7.18;;;3.25;;
39518;SDS011;25200;53.394;10.414;2023-03-01T16:12:17;6.53;;;3.35;;
39518;SDS011;25200;53.394;10.414;2023-03-01T16:14:45;7.53;;;3.22;;
39518;SDS011;25200;53.394;10.414;2023-03-01T16:17:11;6.55;;;2.92;;
39518;SDS011;25200;53.394;10.414;2023-03-01T16:19:38;7.95;;;2.95;;
39518;SDS011;25200;53.394;10.414;2023-03-01T16:22:04;6.43;;;2.60;;
39518;SDS011;25200;53.394;10.414;2023-03-01T16:24:29;5.18;;;2.42;;
39518;SDS011;25200;53.394;10.414;2023-03-01T16:26:55;6.95;;;2.75;;
39518;SDS011;25200;53.394;10.414;2023-03-01T16:29:21;6.43;;;2.60;;
39518;SDS011;25200;53.394;10.414;2023-03-01T16:31:47;4.80;;;2.13;;
39518;SDS011;25200;53.394;10.414;2023-03-01T16:34:12;6.25;;;2.40;;
39518;SDS011;25200;53.394;10.414;2023-03-01T16:36:38;5.53;;;2.30;;
39518;SDS011;25200;53.394;10.414;2023-03-01T16:39:04;5.47;;;2.25;;
39518;SDS011;25200;53.394;10.414;2023-03-01T16:41:31;5.40;;;2.20;;
39518;SDS011;25200;53.394;10.414;2023-03-01T16:43:56;6.15;;;2.53;;
39518;SDS011;25200;53.394;10.414;2023-03-01T16:46:23;5.75;;;2.45;;
39518;SDS011;25200;53.394;10.414;2023-03-01T16:48:51;5.78;;;2.28;;
39518;SDS011;25200;53.394;10.414;2023-03-01T16:51:17;5.75;;;2.40;;
39518;SDS011;25200;53.394;10.414;2023-03-01T16:53:43;7.15;;;2.70;;
39518;SDS011;25200;53.394;10.414;2023-03-01T16:56:09;4.95;;;2.35;;
39518;SDS011;25200;53.394;10.414;2023-03-01T16:58:36;5.85;;;2.47;;
39518;SDS011;25200;53.394;10.414;2023-03-01T17:01:14;5.70;;;2.38;;
39518;SDS011;25200;53.394;10.414;2023-03-01T17:03:42;5.35;;;2.25;;
39518;SDS011;25200;53.394;10.414;2023-03-01T17:06:12;4.47;;;2.33;;
39518;SDS011;25200;53.394;10.414;2023-03-01T17:08:40;5.13;;;1.85;;
39518;SDS011;25200;53.394;10.414;2023-03-01T17:11:07;5.95;;;2.60;;